sensor_id;sensor_type;location;lat;lon;timestamp;temperature;humidity
30148;DHT22;16960;49.404;8.248;2024-03-23T00:55:49;21.50;40.30
30148;DHT22;16960;49.404;8.248;2024-03-23T00:58:15;21.50;40.40
30148;DHT22;16960;49.404;8.248;2024-03-23T01:00:42;21.50;40.40
30148;DHT22;16960;49.404;8.248;2024-03-23T01:03:07;21.50;40.50
30148;DHT22;16960;49.404;8.248;2024-03-23T01:05:34;21.50;40.50
30148;DHT22;16960;49.404;8.248;2024-03-23T01:08:00;21.50;40.50
30148;DHT22;16960;49.404;8.248;2024-03-23T01:10:29;21.50;40.50
30148;DHT22;16960;49.404;8.248;2024-03-23T01:12:54;21.50;40.60
30148;DHT22;16960;49.404;8.248;2024-03-23T01:15:21;21.50;40.60
30148;DHT22;16960;49.404;8.248;2024-03-23T01:17:47;21.50;40.60
30148;DHT22;16960;49.404;8.248;2024-03-23T01:20:14;21.40;40.40
30148;DHT22;16960;49.404;8.248;2024-03-23T01:22:40;21.50;40.60
30148;DHT22;16960;49.404;8.248;2024-03-23T01:25:07;21.50;40.60
30148;DHT22;16960;49.404;8.248;2024-03-23T01:27:35;21.50;40.60
30148;DHT22;16960;49.404;8.248;2024-03-23T01:30:02;21.40;40.50
30148;DHT22;16960;49.404;8.248;2024-03-23T01:32:28;21.50;40.60
30148;DHT22;16960;49.404;8.248;2024-03-23T01:34:54;21.40;40.50
30148;DHT22;16960;49.404;8.248;2024-03-23T01:37:20;21.40;40.50
30148;DHT22;16960;49.404;8.248;2024-03-23T01:39:47;21.40;40.50
30148;DHT22;16960;49.404;8.248;2024-03-23T01:42:13;21.40;40.50
30148;DHT22;16960;49.404;8.248;2024-03-23T01:44:41;21.40;40.50
30148;DHT22;16960;49.404;8.248;2024-03-23T01:47:07;21.40;40.50
30148;DHT22;16960;49.404;8.248;2024-03-23T01:49:35;21.40;40.50
30148;DHT22;16960;49.404;8.248;2024-03-23T01:52:02;21.30;40.50
30148;DHT22;16960;49.404;8.248;2024-03-23T01:54:29;21.40;40.50
30148;DHT22;16960;49.404;8.248;2024-03-23T01:56:56;21.40;40.60
30148;DHT22;16960;49.404;8.248;2024-03-23T01:59:23;21.30;40.50
30148;DHT22;16960;49.404;8.248;2024-03-23T02:01:51;21.30;40.50
30148;DHT22;16960;49.404;8.248;2024-03-23T02:04:17;21.30;40.50
30148;DHT22;16960;49.404;8.248;2024-03-23T02:06:43;21.30;40.50
30148;DHT22;16960;49.404;8.248;2024-03-23T02:09:10;21.30;40.50
30148;DHT22;16960;49.404;8.248;2024-03-23T02:11:37;21.30;40.50
30148;DHT22;16960;49.404;8.248;2024-03-23T02:14:04;21.30;40.60
30148;DHT22;16960;49.404;8.248;2024-03-23T02:16:29;21.30;40.60
30148;DHT22;16960;49.404;8.248;2024-03-23T02:18:58;21.30;40.60
30148;DHT22;16960;49.404;8.248;2024-03-23T02:21:24;21.30;40.60
30148;DHT22;16960;49.404;8.248;2024-03-23T02:23:54;21.20;40.60
30148;DHT22;16960;49.404;8.248;2024-03-23T02:26:20;21.20;40.60
30148;DHT22;16960;49.404;8.248;2024-03-23T02:28:47;21.20;40.60
30148;DHT22;16960;49.404;8.248;2024-03-23T02:31:13;21.20;40.60
30148;DHT22;16960;49.404;8.248;2024-03-23T02:33:40;21.20;40.70
30148;DHT22;16960;49.404;8.248;2024-03-23T02:36:06;21.20;40.70
30148;DHT22;16960;49.404;8.248;2024-03-23T02:38:33;21.20;40.70
30148;DHT22;16960;49.404;8.248;2024-03-23T02:41:03;21.20;40.70
30148;DHT22;16960;49.404;8.248;2024-03-23T02:43:30;21.20;40.70
30148;DHT22;16960;49.404;8.248;2024-03-23T02:45:56;21.20;40.70
30148;DHT22;16960;49.404;8.248;2024-03-23T02:48:23;21.20;40.70
30148;DHT22;16960;49.404;8.248;2024-03-23T02:50:49;21.20;40.70
30148;DHT22;16960;49.404;8.248;2024-03-23T02:53:16;21.20;40.70
30148;DHT22;16960;49.404;8.248;2024-03-23T02:55:42;21.10;40.80
30148;DHT22;16960;49.404;8.248;2024-03-23T02:58:11;21.20;40.70
30148;DHT22;16960;49.404;8.248;2024-03-23T03:00:37;21.20;40.70
30148;DHT22;16960;49.404;8.248;2024-03-23T03:03:04;21.20;40.70
30148;DHT22;16960;49.404;8.248;2024-03-23T03:05:30;21.10;40.70
30148;DHT22;16960;49.404;8.248;2024-03-23T03:07:57;21.10;40.70
30148;DHT22;16960;49.404;8.248;2024-03-23T03:10:23;21.10;40.60
30148;DHT22;16960;49.404;8.248;2024-03-23T03:12:50;21.10;40.60
30148;DHT22;16960;49.404;8.248;2024-03-23T03:15:17;21.10;40.50
30148;DHT22;16960;49.404;8.248;2024-03-23T03:17:45;21.10;40.50
30148;DHT22;16960;49.404;8.248;2024-03-23T03:20:11;21.10;40.50
30148;DHT22;16960;49.404;8.248;2024-03-23T03:22:39;21.10;40.40
30148;DHT22;16960;49.404;8.248;2024-03-23T03:25:06;21.10;40.40
30148;DHT22;16960;49.404;8.248;2024-03-23T03:27:33;21.00;40.30
30148;DHT22;16960;49.404;8.248;2024-03-23T03:29:59;21.00;40.30
30148;DHT22;16960;49.404;8.248;2024-03-23T03:32:29;21.00;40.30
30148;DHT22;16960;49.404;8.248;2024-03-23T03:34:55;21.00;40.30
30148;DHT22;16960;49.404;8.248;2024-03-23T03:37:22;21.00;40.30
30148;DHT22;16960;49.404;8.248;2024-03-23T03:39:48;21.00;40.20
30148;DHT22;16960;49.404;8.248;2024-03-23T03:42:15;21.00;40.30
30148;DHT22;16960;49.404;8.248;2024-03-23T03:44:41;21.00;40.30
30148;DHT22;16960;49.404;8.248;2024-03-23T03:47:08;21.00;40.40
30148;DHT22;16960;49.404;8.248;2024-03-23T03:49:35;21.00;41.20
30148;DHT22;16960;49.404;8.248;2024-03-23T03:52:02;21.00;40.50
30148;DHT22;16960;49.404;8.248;2024-03-23T03:54:28;20.90;40.40
30148;DHT22;16960;49.404;8.248;2024-03-23T03:56:55;21.00;40.40
30148;DHT22;16960;49.404;8.248;2024-03-23T03:59:21;21.00;40.50
30148;DHT22;16960;49.404;8.248;2024-03-23T04:01:48;21.00;40.50
30148;DHT22;16960;49.404;8.248;2024-03-23T04:04:15;20.90;40.60
30148;DHT22;16960;49.404;8.248;2024-03-23T04:06:43;20.90;40.60
30148;DHT22;16960;49.404;8.248;2024-03-23T04:09:10;20.90;40.60
30148;DHT22;16960;49.404;8.248;2024-03-23T04:11:36;20.90;40.70
30148;DHT22;16960;49.404;8.248;2024-03-23T04:14:03;20.90;40.70
30148;DHT22;16960;49.404;8.248;2024-03-23T04:16:30;20.90;40.70
30148;DHT22;16960;49.404;8.248;2024-03-23T04:18:58;20.90;40.50
30148;DHT22;16960;49.404;8.248;2024-03-23T04:21:24;20.90;40.30
30148;DHT22;16960;49.404;8.248;2024-03-23T04:23:53;20.90;40.20
30148;DHT22;16960;49.404;8.248;2024-03-23T04:26:18;20.90;40.10
30148;DHT22;16960;49.404;8.248;2024-03-23T04:28:45;20.90;40.10
30148;DHT22;16960;49.404;8.248;2024-03-23T04:31:11;20.90;40.00
30148;DHT22;16960;49.404;8.248;2024-03-23T04:33:38;20.90;40.00
30148;DHT22;16960;49.404;8.248;2024-03-23T04:36:05;20.90;39.90
30148;DHT22;16960;49.404;8.248;2024-03-23T04:38:32;20.90;39.80
30148;DHT22;16960;49.404;8.248;2024-03-23T04:41:01;20.90;39.80
30148;DHT22;16960;49.404;8.248;2024-03-23T04:43:28;20.90;39.80
30148;DHT22;16960;49.404;8.248;2024-03-23T04:45:55;20.90;39.70
30148;DHT22;16960;49.404;8.248;2024-03-23T04:48:23;20.90;39.70
30148;DHT22;16960;49.404;8.248;2024-03-23T04:50:55;20.90;39.70
30148;DHT22;16960;49.404;8.248;2024-03-23T04:53:23;20.90;39.70
30148;DHT22;16960;49.404;8.248;2024-03-23T04:56:02;20.90;39.60
30148;DHT22;16960;49.404;8.248;2024-03-23T04:58:30;20.90;39.60
30148;DHT22;16960;49.404;8.248;2024-03-23T05:00:56;20.90;39.60
30148;DHT22;16960;49.404;8.248;2024-03-23T05:03:23;20.80;39.50
30148;DHT22;16960;49.404;8.248;2024-03-23T05:05:50;20.80;39.50
30148;DHT22;16960;49.404;8.248;2024-03-23T05:08:17;20.80;40.10
30148;DHT22;16960;49.404;8.248;2024-03-23T05:10:43;20.80;39.50
30148;DHT22;16960;49.404;8.248;2024-03-23T05:13:11;20.80;39.50
30148;DHT22;16960;49.404;8.248;2024-03-23T05:15:37;20.80;39.50
30148;DHT22;16960;49.404;8.248;2024-03-23T05:18:05;20.80;39.50
30148;DHT22;16960;49.404;8.248;2024-03-23T05:20:31;20.80;39.40
30148;DHT22;16960;49.404;8.248;2024-03-23T05:22:58;20.80;39.40
30148;DHT22;16960;49.404;8.248;2024-03-23T05:25:24;20.80;39.50
30148;DHT22;16960;49.404;8.248;2024-03-23T05:27:51;20.80;39.50
30148;DHT22;16960;49.404;8.248;2024-03-23T05:30:18;20.80;39.50
30148;DHT22;16960;49.404;8.248;2024-03-23T05:32:45;20.80;39.60
30148;DHT22;16960;49.404;8.248;2024-03-23T05:35:11;20.80;39.70
30148;DHT22;16960;49.404;8.248;2024-03-23T05:37:38;20.70;39.80
30148;DHT22;16960;49.404;8.248;2024-03-23T05:40:05;20.70;39.80
30148;DHT22;16960;49.404;8.248;2024-03-23T05:42:34;20.70;39.80
30148;DHT22;16960;49.404;8.248;2024-03-23T05:44:59;20.80;39.80
30148;DHT22;16960;49.404;8.248;2024-03-23T05:47:28;20.70;39.80
30148;DHT22;16960;49.404;8.248;2024-03-23T05:49:54;20.70;39.80
30148;DHT22;16960;49.404;8.248;2024-03-23T05:52:21;20.70;39.80
30148;DHT22;16960;49.404;8.248;2024-03-23T05:54:47;20.70;39.80
30148;DHT22;16960;49.404;8.248;2024-03-23T05:57:14;20.60;39.80
30148;DHT22;16960;49.404;8.248;2024-03-23T05:59:40;20.60;39.90
30148;DHT22;16960;49.404;8.248;2024-03-23T06:02:07;20.60;39.90
30148;DHT22;16960;49.404;8.248;2024-03-23T06:04:34;20.60;39.90
30148;DHT22;16960;49.404;8.248;2024-03-23T06:07:01;20.70;39.90
30148;DHT22;16960;49.404;8.248;2024-03-23T06:09:27;20.60;40.10
30148;DHT22;16960;49.404;8.248;2024-03-23T06:11:57;20.60;40.30
30148;DHT22;16960;49.404;8.248;2024-03-23T06:14:22;20.60;40.40
30148;DHT22;16960;49.404;8.248;2024-03-23T06:16:49;20.60;40.50
30148;DHT22;16960;49.404;8.248;2024-03-23T06:19:15;20.60;40.60
30148;DHT22;16960;49.404;8.248;2024-03-23T06:21:45;20.70;40.70
30148;DHT22;16960;49.404;8.248;2024-03-23T06:24:11;20.60;40.60
30148;DHT22;16960;49.404;8.248;2024-03-23T06:26:38;20.70;40.70
30148;DHT22;16960;49.404;8.248;2024-03-23T06:29:04;20.70;40.80
30148;DHT22;16960;49.404;8.248;2024-03-23T06:31:31;20.70;40.80
30148;DHT22;16960;49.404;8.248;2024-03-23T06:33:57;20.70;40.80
30148;DHT22;16960;49.404;8.248;2024-03-23T06:36:24;20.80;40.70
30148;DHT22;16960;49.404;8.248;2024-03-23T06:38:51;20.80;40.70
30148;DHT22;16960;49.404;8.248;2024-03-23T06:41:19;20.80;40.70
30148;DHT22;16960;49.404;8.248;2024-03-23T06:43:45;20.90;40.80
30148;DHT22;16960;49.404;8.248;2024-03-23T06:46:12;20.80;40.70
30148;DHT22;16960;49.404;8.248;2024-03-23T06:48:38;20.90;40.70
30148;DHT22;16960;49.404;8.248;2024-03-23T06:51:04;20.90;40.70
30148;DHT22;16960;49.404;8.248;2024-03-23T06:53:32;20.90;40.70
30148;DHT22;16960;49.404;8.248;2024-03-23T06:56:00;20.90;40.70
30148;DHT22;16960;49.404;8.248;2024-03-23T06:58:26;20.90;40.60
30148;DHT22;16960;49.404;8.248;2024-03-23T07:00:53;20.90;40.60
30148;DHT22;16960;49.404;8.248;2024-03-23T07:03:20;21.00;40.60
30148;DHT22;16960;49.404;8.248;2024-03-23T07:05:47;21.00;40.60
30148;DHT22;16960;49.404;8.248;2024-03-23T07:08:13;21.00;40.60
30148;DHT22;16960;49.404;8.248;2024-03-23T07:10:44;21.00;41.20
30148;DHT22;16960;49.404;8.248;2024-03-23T07:13:11;21.00;40.50
30148;DHT22;16960;49.404;8.248;2024-03-23T07:15:38;21.00;40.50
30148;DHT22;16960;49.404;8.248;2024-03-23T07:18:04;21.00;40.50
30148;DHT22;16960;49.404;8.248;2024-03-23T07:20:31;21.10;40.60
30148;DHT22;16960;49.404;8.248;2024-03-23T07:22:57;21.10;40.60
30148;DHT22;16960;49.404;8.248;2024-03-23T07:25:24;21.10;40.50
30148;DHT22;16960;49.404;8.248;2024-03-23T07:27:52;21.10;40.50
30148;DHT22;16960;49.404;8.248;2024-03-23T07:30:21;21.20;40.40
30148;DHT22;16960;49.404;8.248;2024-03-23T07:32:47;21.20;40.30
30148;DHT22;16960;49.404;8.248;2024-03-23T07:35:14;21.20;40.30
30148;DHT22;16960;49.404;8.248;2024-03-23T07:37:40;21.20;40.20
30148;DHT22;16960;49.404;8.248;2024-03-23T07:40:08;21.20;40.20
30148;DHT22;16960;49.404;8.248;2024-03-23T07:42:35;21.20;40.20
30148;DHT22;16960;49.404;8.248;2024-03-23T07:45:02;21.30;40.30
30148;DHT22;16960;49.404;8.248;2024-03-23T07:47:29;21.30;40.30
30148;DHT22;16960;49.404;8.248;2024-03-23T07:49:56;21.30;40.40
30148;DHT22;16960;49.404;8.248;2024-03-23T07:52:22;21.30;40.40
30148;DHT22;16960;49.404;8.248;2024-03-23T07:54:49;21.30;40.30
30148;DHT22;16960;49.404;8.248;2024-03-23T07:57:14;21.30;40.20
30148;DHT22;16960;49.404;8.248;2024-03-23T07:59:41;21.30;40.20
30148;DHT22;16960;49.404;8.248;2024-03-23T08:02:07;21.30;40.10
30148;DHT22;16960;49.404;8.248;2024-03-23T08:04:36;21.40;40.10
30148;DHT22;16960;49.404;8.248;2024-03-23T08:07:01;21.40;40.00
30148;DHT22;16960;49.404;8.248;2024-03-23T08:09:29;21.40;39.90
30148;DHT22;16960;49.404;8.248;2024-03-23T08:11:56;21.50;40.00
30148;DHT22;16960;49.404;8.248;2024-03-23T08:14:22;21.40;39.90
30148;DHT22;16960;49.404;8.248;2024-03-23T08:16:48;21.50;40.00
30148;DHT22;16960;49.404;8.248;2024-03-23T08:19:16;21.50;40.00
30148;DHT22;16960;49.404;8.248;2024-03-23T08:21:44;21.50;40.10
30148;DHT22;16960;49.404;8.248;2024-03-23T08:24:10;21.50;40.00
30148;DHT22;16960;49.404;8.248;2024-03-23T08:26:37;21.50;39.90
30148;DHT22;16960;49.404;8.248;2024-03-23T08:29:03;21.60;39.90
30148;DHT22;16960;49.404;8.248;2024-03-23T08:31:31;21.60;39.80
30148;DHT22;16960;49.404;8.248;2024-03-23T08:33:56;21.60;39.80
30148;DHT22;16960;49.404;8.248;2024-03-23T08:36:23;21.60;39.80
30148;DHT22;16960;49.404;8.248;2024-03-23T08:38:51;21.60;39.70
30148;DHT22;16960;49.404;8.248;2024-03-23T08:41:19;21.60;39.70
30148;DHT22;16960;49.404;8.248;2024-03-23T08:43:45;21.60;39.70
30148;DHT22;16960;49.404;8.248;2024-03-23T08:46:13;21.70;39.80
30148;DHT22;16960;49.404;8.248;2024-03-23T08:48:40;21.70;39.80
30148;DHT22;16960;49.404;8.248;2024-03-23T08:51:10;21.70;39.60
30148;DHT22;16960;49.404;8.248;2024-03-23T08:53:36;21.70;39.60
30148;DHT22;16960;49.404;8.248;2024-03-23T08:56:06;21.70;39.60
30148;DHT22;16960;49.404;8.248;2024-03-23T08:58:34;21.70;39.60
30148;DHT22;16960;49.404;8.248;2024-03-23T09:01:04;21.70;39.50
30148;DHT22;16960;49.404;8.248;2024-03-23T09:03:31;21.70;39.40
30148;DHT22;16960;49.404;8.248;2024-03-23T09:05:57;21.70;39.40
30148;DHT22;16960;49.404;8.248;2024-03-23T09:08:25;21.70;39.40
30148;DHT22;16960;49.404;8.248;2024-03-23T09:10:52;21.70;39.40
30148;DHT22;16960;49.404;8.248;2024-03-23T09:13:20;21.70;39.30
30148;DHT22;16960;49.404;8.248;2024-03-23T09:15:47;21.70;39.30
30148;DHT22;16960;49.404;8.248;2024-03-23T09:18:14;21.70;39.30
30148;DHT22;16960;49.404;8.248;2024-03-23T09:20:40;21.80;39.30
30148;DHT22;16960;49.404;8.248;2024-03-23T09:23:07;21.80;39.30
30148;DHT22;16960;49.404;8.248;2024-03-23T09:25:36;21.80;39.30
30148;DHT22;16960;49.404;8.248;2024-03-23T09:28:03;21.80;39.30
30148;DHT22;16960;49.404;8.248;2024-03-23T09:30:32;21.80;39.20
30148;DHT22;16960;49.404;8.248;2024-03-23T09:32:59;21.80;39.20
30148;DHT22;16960;49.404;8.248;2024-03-23T09:35:25;21.80;39.20
30148;DHT22;16960;49.404;8.248;2024-03-23T09:37:52;21.90;39.80
30148;DHT22;16960;49.404;8.248;2024-03-23T09:40:18;21.90;39.20
30148;DHT22;16960;49.404;8.248;2024-03-23T09:42:56;21.90;39.20
30148;DHT22;16960;49.404;8.248;2024-03-23T09:45:27;21.90;39.20
30148;DHT22;16960;49.404;8.248;2024-03-23T09:47:56;21.90;39.20
30148;DHT22;16960;49.404;8.248;2024-03-23T09:50:22;21.90;39.20
30148;DHT22;16960;49.404;8.248;2024-03-23T09:52:49;21.90;39.10
30148;DHT22;16960;49.404;8.248;2024-03-23T09:55:16;21.90;39.10
30148;DHT22;16960;49.404;8.248;2024-03-23T09:57:42;21.90;39.10
30148;DHT22;16960;49.404;8.248;2024-03-23T10:00:09;21.90;39.10
30148;DHT22;16960;49.404;8.248;2024-03-23T10:02:37;22.00;39.00
30148;DHT22;16960;49.404;8.248;2024-03-23T10:05:20;22.00;38.90
30148;DHT22;16960;49.404;8.248;2024-03-23T10:07:48;22.00;39.00
30148;DHT22;16960;49.404;8.248;2024-03-23T10:10:16;22.00;38.90
30148;DHT22;16960;49.404;8.248;2024-03-23T10:12:44;22.00;38.80
30148;DHT22;16960;49.404;8.248;2024-03-23T10:15:17;22.00;38.70
30148;DHT22;16960;49.404;8.248;2024-03-23T10:17:44;22.00;38.70
30148;DHT22;16960;49.404;8.248;2024-03-23T10:20:12;22.00;38.80
30148;DHT22;16960;49.404;8.248;2024-03-23T10:22:39;22.10;38.90
30148;DHT22;16960;49.404;8.248;2024-03-23T10:25:08;22.10;38.80
30148;DHT22;16960;49.404;8.248;2024-03-23T10:27:36;22.10;38.70
30148;DHT22;16960;49.404;8.248;2024-03-23T10:30:10;22.10;38.60
30148;DHT22;16960;49.404;8.248;2024-03-23T10:32:36;22.10;38.70
30148;DHT22;16960;49.404;8.248;2024-03-23T10:35:18;22.10;38.50
30148;DHT22;16960;49.404;8.248;2024-03-23T10:37:45;22.10;38.40
30148;DHT22;16960;49.404;8.248;2024-03-23T10:40:13;22.10;38.30
30148;DHT22;16960;49.404;8.248;2024-03-23T10:42:39;22.10;38.10
30148;DHT22;16960;49.404;8.248;2024-03-23T10:45:07;22.10;38.10
30148;DHT22;16960;49.404;8.248;2024-03-23T10:47:35;22.10;38.00
30148;DHT22;16960;49.404;8.248;2024-03-23T10:50:03;22.10;38.00
30148;DHT22;16960;49.404;8.248;2024-03-23T10:52:32;22.10;38.00
30148;DHT22;16960;49.404;8.248;2024-03-23T10:55:00;22.20;38.00
30148;DHT22;16960;49.404;8.248;2024-03-23T10:57:31;22.20;37.90
30148;DHT22;16960;49.404;8.248;2024-03-23T11:00:02;22.20;38.00
30148;DHT22;16960;49.404;8.248;2024-03-23T11:02:28;22.20;38.00
30148;DHT22;16960;49.404;8.248;2024-03-23T11:04:55;22.20;38.00
30148;DHT22;16960;49.404;8.248;2024-03-23T11:07:32;22.20;37.90
30148;DHT22;16960;49.404;8.248;2024-03-23T11:10:00;22.20;38.00
30148;DHT22;16960;49.404;8.248;2024-03-23T11:12:27;22.20;37.90
30148;DHT22;16960;49.404;8.248;2024-03-23T11:14:58;22.20;37.80
30148;DHT22;16960;49.404;8.248;2024-03-23T11:17:25;22.10;37.80
30148;DHT22;16960;49.404;8.248;2024-03-23T11:19:53;22.20;37.70
30148;DHT22;16960;49.404;8.248;2024-03-23T11:22:39;22.20;37.60
30148;DHT22;16960;49.404;8.248;2024-03-23T11:25:17;22.20;37.50
30148;DHT22;16960;49.404;8.248;2024-03-23T11:27:56;22.30;37.50
30148;DHT22;16960;49.404;8.248;2024-03-23T11:30:24;22.30;37.50
30148;DHT22;16960;49.404;8.248;2024-03-23T11:32:51;22.30;37.50
30148;DHT22;16960;49.404;8.248;2024-03-23T11:35:26;22.30;37.30
30148;DHT22;16960;49.404;8.248;2024-03-23T11:38:07;22.30;37.30
30148;DHT22;16960;49.404;8.248;2024-03-23T11:40:35;22.30;37.40
30148;DHT22;16960;49.404;8.248;2024-03-23T11:43:02;22.20;37.40
30148;DHT22;16960;49.404;8.248;2024-03-23T11:45:34;22.20;37.50
30148;DHT22;16960;49.404;8.248;2024-03-23T11:48:08;22.20;37.50
30148;DHT22;16960;49.404;8.248;2024-03-23T11:50:37;22.20;37.50
30148;DHT22;16960;49.404;8.248;2024-03-23T11:53:15;22.20;37.50
30148;DHT22;16960;49.404;8.248;2024-03-23T11:55:47;22.20;37.50
30148;DHT22;16960;49.404;8.248;2024-03-23T11:58:13;22.20;37.60
30148;DHT22;16960;49.404;8.248;2024-03-23T12:00:40;22.20;37.70
30148;DHT22;16960;49.404;8.248;2024-03-23T12:03:06;22.20;37.70
30148;DHT22;16960;49.404;8.248;2024-03-23T12:05:34;22.20;37.80
30148;DHT22;16960;49.404;8.248;2024-03-23T12:08:21;22.20;37.80
30148;DHT22;16960;49.404;8.248;2024-03-23T12:10:50;22.20;37.90
30148;DHT22;16960;49.404;8.248;2024-03-23T12:13:17;22.20;37.80
30148;DHT22;16960;49.404;8.248;2024-03-23T12:15:45;22.20;37.80
30148;DHT22;16960;49.404;8.248;2024-03-23T12:18:11;22.20;37.90
30148;DHT22;16960;49.404;8.248;2024-03-23T12:20:39;22.20;37.90
30148;DHT22;16960;49.404;8.248;2024-03-23T12:23:06;22.30;37.90
30148;DHT22;16960;49.404;8.248;2024-03-23T12:25:35;22.30;37.70
30148;DHT22;16960;49.404;8.248;2024-03-23T12:28:01;22.40;37.70
30148;DHT22;16960;49.404;8.248;2024-03-23T12:30:28;22.40;37.70
30148;DHT22;16960;49.404;8.248;2024-03-23T12:32:54;22.40;37.70
30148;DHT22;16960;49.404;8.248;2024-03-23T12:35:21;22.50;37.70
30148;DHT22;16960;49.404;8.248;2024-03-23T12:37:47;22.50;37.70
30148;DHT22;16960;49.404;8.248;2024-03-23T12:40:14;22.50;37.70
30148;DHT22;16960;49.404;8.248;2024-03-23T12:42:41;22.50;37.60
30148;DHT22;16960;49.404;8.248;2024-03-23T12:45:09;22.50;37.50
30148;DHT22;16960;49.404;8.248;2024-03-23T12:47:34;22.50;37.30
30148;DHT22;16960;49.404;8.248;2024-03-23T12:50:02;22.50;37.20
30148;DHT22;16960;49.404;8.248;2024-03-23T12:52:28;22.50;37.20
30148;DHT22;16960;49.404;8.248;2024-03-23T12:54:55;22.40;37.10
30148;DHT22;16960;49.404;8.248;2024-03-23T12:57:23;22.40;37.10
30148;DHT22;16960;49.404;8.248;2024-03-23T12:59:51;22.40;37.20
30148;DHT22;16960;49.404;8.248;2024-03-23T13:02:19;22.40;37.30
30148;DHT22;16960;49.404;8.248;2024-03-23T13:04:48;22.40;37.30
30148;DHT22;16960;49.404;8.248;2024-03-23T13:07:14;22.50;37.40
30148;DHT22;16960;49.404;8.248;2024-03-23T13:09:41;22.60;37.40
30148;DHT22;16960;49.404;8.248;2024-03-23T13:12:08;22.60;37.40
30148;DHT22;16960;49.404;8.248;2024-03-23T13:14:35;22.60;37.40
30148;DHT22;16960;49.404;8.248;2024-03-23T13:17:02;22.60;37.30
30148;DHT22;16960;49.404;8.248;2024-03-23T13:19:30;22.70;37.40
30148;DHT22;16960;49.404;8.248;2024-03-23T13:21:57;22.70;37.40
30148;DHT22;16960;49.404;8.248;2024-03-23T13:24:24;22.70;37.40
30148;DHT22;16960;49.404;8.248;2024-03-23T13:26:50;22.80;37.40
30148;DHT22;16960;49.404;8.248;2024-03-23T13:29:18;22.90;37.40
30148;DHT22;16960;49.404;8.248;2024-03-23T13:31:44;22.90;37.40
30148;DHT22;16960;49.404;8.248;2024-03-23T13:34:13;22.90;37.40
30148;DHT22;16960;49.404;8.248;2024-03-23T13:36:40;23.00;37.40
30148;DHT22;16960;49.404;8.248;2024-03-23T13:39:07;23.00;37.40
30148;DHT22;16960;49.404;8.248;2024-03-23T13:41:37;23.00;37.40
30148;DHT22;16960;49.404;8.248;2024-03-23T13:44:05;23.10;37.50
30148;DHT22;16960;49.404;8.248;2024-03-23T13:46:31;23.10;37.50
30148;DHT22;16960;49.404;8.248;2024-03-23T13:48:58;23.10;37.50
30148;DHT22;16960;49.404;8.248;2024-03-23T13:51:26;23.10;37.50
30148;DHT22;16960;49.404;8.248;2024-03-23T13:53:53;23.10;37.60
30148;DHT22;16960;49.404;8.248;2024-03-23T13:56:20;23.10;37.60
30148;DHT22;16960;49.404;8.248;2024-03-23T13:58:47;23.10;37.70
30148;DHT22;16960;49.404;8.248;2024-03-23T14:01:15;23.20;37.70
30148;DHT22;16960;49.404;8.248;2024-03-23T14:03:43;23.20;37.80
30148;DHT22;16960;49.404;8.248;2024-03-23T14:06:09;23.10;37.80
30148;DHT22;16960;49.404;8.248;2024-03-23T14:08:38;23.20;37.80
30148;DHT22;16960;49.404;8.248;2024-03-23T14:11:05;23.20;37.80
30148;DHT22;16960;49.404;8.248;2024-03-23T14:13:32;23.10;37.80
30148;DHT22;16960;49.404;8.248;2024-03-23T14:15:58;23.20;37.80
30148;DHT22;16960;49.404;8.248;2024-03-23T14:18:25;23.20;37.80
30148;DHT22;16960;49.404;8.248;2024-03-23T14:20:52;23.20;37.80
30148;DHT22;16960;49.404;8.248;2024-03-23T14:23:19;23.20;37.80
30148;DHT22;16960;49.404;8.248;2024-03-23T14:25:47;23.20;37.80
30148;DHT22;16960;49.404;8.248;2024-03-23T14:28:14;23.20;37.80
30148;DHT22;16960;49.404;8.248;2024-03-23T14:30:41;23.20;37.80
30148;DHT22;16960;49.404;8.248;2024-03-23T14:33:08;23.20;37.80
30148;DHT22;16960;49.404;8.248;2024-03-23T14:35:34;23.20;37.80
30148;DHT22;16960;49.404;8.248;2024-03-23T14:38:01;23.20;37.80
30148;DHT22;16960;49.404;8.248;2024-03-23T14:40:27;23.20;37.80
30148;DHT22;16960;49.404;8.248;2024-03-23T14:42:56;23.20;37.70
30148;DHT22;16960;49.404;8.248;2024-03-23T14:45:22;23.20;37.70
30148;DHT22;16960;49.404;8.248;2024-03-23T14:47:50;23.20;37.70
30148;DHT22;16960;49.404;8.248;2024-03-23T14:50:16;23.30;37.70
30148;DHT22;16960;49.404;8.248;2024-03-23T14:52:44;23.30;37.60
30148;DHT22;16960;49.404;8.248;2024-03-23T14:55:10;23.30;37.60
30148;DHT22;16960;49.404;8.248;2024-03-23T14:57:37;23.30;37.50
30148;DHT22;16960;49.404;8.248;2024-03-23T15:00:10;23.30;37.40
30148;DHT22;16960;49.404;8.248;2024-03-23T15:02:38;23.40;37.30
30148;DHT22;16960;49.404;8.248;2024-03-23T15:05:04;23.30;37.20
30148;DHT22;16960;49.404;8.248;2024-03-23T15:07:34;23.40;37.10
30148;DHT22;16960;49.404;8.248;2024-03-23T15:10:00;23.40;37.20
30148;DHT22;16960;49.404;8.248;2024-03-23T15:12:27;23.40;37.10
30148;DHT22;16960;49.404;8.248;2024-03-23T15:14:53;23.40;36.90
30148;DHT22;16960;49.404;8.248;2024-03-23T15:17:22;23.40;37.10
30148;DHT22;16960;49.404;8.248;2024-03-23T15:19:48;23.30;37.30
30148;DHT22;16960;49.404;8.248;2024-03-23T15:22:15;23.30;37.20
30148;DHT22;16960;49.404;8.248;2024-03-23T15:24:41;23.20;37.10
30148;DHT22;16960;49.404;8.248;2024-03-23T15:27:07;23.20;37.10
30148;DHT22;16960;49.404;8.248;2024-03-23T15:29:34;23.20;37.10
30148;DHT22;16960;49.404;8.248;2024-03-23T15:32:02;23.10;37.00
30148;DHT22;16960;49.404;8.248;2024-03-23T15:34:30;23.10;36.70
30148;DHT22;16960;49.404;8.248;2024-03-23T15:36:57;23.10;36.60
30148;DHT22;16960;49.404;8.248;2024-03-23T15:39:23;23.10;36.80
30148;DHT22;16960;49.404;8.248;2024-03-23T15:41:50;23.10;36.80
30148;DHT22;16960;49.404;8.248;2024-03-23T15:44:16;23.00;36.80
30148;DHT22;16960;49.404;8.248;2024-03-23T15:46:42;23.00;36.80
30148;DHT22;16960;49.404;8.248;2024-03-23T15:49:08;23.00;37.20
30148;DHT22;16960;49.404;8.248;2024-03-23T15:51:37;22.90;36.90
30148;DHT22;16960;49.404;8.248;2024-03-23T15:54:04;22.90;36.30
30148;DHT22;16960;49.404;8.248;2024-03-23T15:56:32;22.90;36.60
30148;DHT22;16960;49.404;8.248;2024-03-23T15:58:58;22.90;36.90
30148;DHT22;16960;49.404;8.248;2024-03-23T16:01:31;23.00;37.10
30148;DHT22;16960;49.404;8.248;2024-03-23T16:03:59;23.00;37.10
30148;DHT22;16960;49.404;8.248;2024-03-23T16:06:26;23.00;37.10
30148;DHT22;16960;49.404;8.248;2024-03-23T16:08:53;23.10;37.20
30148;DHT22;16960;49.404;8.248;2024-03-23T16:11:20;23.10;37.10
30148;DHT22;16960;49.404;8.248;2024-03-23T16:13:46;23.10;37.10
30148;DHT22;16960;49.404;8.248;2024-03-23T16:16:13;23.10;37.10
30148;DHT22;16960;49.404;8.248;2024-03-23T16:18:39;23.10;37.10
30148;DHT22;16960;49.404;8.248;2024-03-23T16:21:07;23.10;37.10
30148;DHT22;16960;49.404;8.248;2024-03-23T16:23:33;23.10;37.20
30148;DHT22;16960;49.404;8.248;2024-03-23T16:26:04;23.10;37.20